createdAt,value
2022-10-22T00:02:07.794Z,26.08
2022-10-22T00:04:37.185Z,28.77
2022-10-22T00:07:06.373Z,29.45
2022-10-22T00:09:35.395Z,27.83
2022-10-22T00:12:04.798Z,26.45
2022-10-22T00:14:35.252Z,26.08
2022-10-22T00:17:06.897Z,25.98
2022-10-22T00:19:40.819Z,26.88
2022-10-22T00:22:10.735Z,26.88
2022-10-22T00:24:41.222Z,25.80
2022-10-22T00:27:12.067Z,24.95
2022-10-22T00:29:42.550Z,26.40
2022-10-22T00:32:11.706Z,25.73
2022-10-22T00:34:40.669Z,26.80
2022-10-22T00:37:09.846Z,28.30
2022-10-22T00:39:38.851Z,26.23
2022-10-22T00:42:08.097Z,27.58
2022-10-22T00:45:09.503Z,25.83
2022-10-22T00:47:41.474Z,27.15
2022-10-22T00:50:15.571Z,25.83
2022-10-22T00:52:45.112Z,25.40
2022-10-22T00:55:15.359Z,25.53
2022-10-22T00:57:44.758Z,26.90
2022-10-22T01:00:16.183Z,25.70
2022-10-22T01:02:45.596Z,25.90
2022-10-22T01:05:14.737Z,26.03
2022-10-22T01:07:46.189Z,25.30
2022-10-22T01:10:25.620Z,26.60
2022-10-22T01:13:07.408Z,26.13
2022-10-22T01:15:46.916Z,25.75
2022-10-22T01:18:21.795Z,27.38
2022-10-22T01:21:11.323Z,25.63
2022-10-22T01:24:10.873Z,27.85
2022-10-22T01:26:54.247Z,26.90
2022-10-22T01:29:30.606Z,25.85
2022-10-22T01:32:02.846Z,24.98
2022-10-22T01:34:33.462Z,25.85
2022-10-22T01:37:03.956Z,25.95
2022-10-22T01:39:35.889Z,26.55
2022-10-22T01:42:04.958Z,26.88
2022-10-22T01:44:37.753Z,25.87
2022-10-22T01:47:22.483Z,24.80
2022-10-22T01:50:23.256Z,24.35
2022-10-22T01:53:08.664Z,24.75
2022-10-22T01:55:49.797Z,23.58
2022-10-22T01:58:29.946Z,24.48
2022-10-22T02:01:07.563Z,23.88
2022-10-22T02:03:41.882Z,23.98
2022-10-22T02:06:15.817Z,24.08
2022-10-22T02:08:46.294Z,25.55
2022-10-22T02:11:16.724Z,24.42
2022-10-22T02:13:49.664Z,25.05
2022-10-22T02:16:25.419Z,24.40
2022-10-22T02:18:57.844Z,23.52
2022-10-22T02:21:27.835Z,24.98
2022-10-22T02:23:57.125Z,23.88
2022-10-22T02:26:32.981Z,24.05
2022-10-22T02:29:06.752Z,23.33
2022-10-22T02:31:41.896Z,24.17
2022-10-22T02:34:15.231Z,24.10
2022-10-22T02:36:48.238Z,23.00
2022-10-22T02:39:20.336Z,25.98
2022-10-22T02:41:49.970Z,24.48
2022-10-22T02:44:22.888Z,24.30
2022-10-22T02:46:53.608Z,23.65
2022-10-22T02:49:22.563Z,22.67
2022-10-22T02:51:52.148Z,23.98
2022-10-22T02:54:21.066Z,23.85
2022-10-22T02:56:50.214Z,24.83
2022-10-22T02:59:19.141Z,26.10
2022-10-22T03:01:48.290Z,23.73
2022-10-22T03:04:18.632Z,23.85
2022-10-22T03:06:49.033Z,24.45
2022-10-22T03:09:21.301Z,24.85
2022-10-22T03:11:53.417Z,24.77
2022-10-22T03:14:22.465Z,23.88
2022-10-22T03:16:51.609Z,24.83
2022-10-22T03:19:21.932Z,22.80
2022-10-22T03:21:55.833Z,23.48
2022-10-22T03:24:29.789Z,22.25
2022-10-22T03:27:00.002Z,22.73
2022-10-22T03:29:30.366Z,22.98
2022-10-22T03:31:59.562Z,21.65
2022-10-22T03:34:29.888Z,22.15
2022-10-22T03:37:01.182Z,23.20
2022-10-22T03:39:33.323Z,23.00
2022-10-22T03:42:03.309Z,24.08
2022-10-22T03:44:32.937Z,22.05
2022-10-22T03:47:02.848Z,24.05
2022-10-22T03:49:33.829Z,24.70
2022-10-22T03:52:08.025Z,23.55
2022-10-22T03:57:13.241Z,23.67
2022-10-22T03:59:44.565Z,25.85
2022-10-22T04:02:14.903Z,23.25
2022-10-22T04:04:45.209Z,23.05
2022-10-22T04:07:14.347Z,22.92
2022-10-22T04:09:43.269Z,22.60
2022-10-22T04:12:12.400Z,23.52
2022-10-22T04:14:41.327Z,22.73
2022-10-22T04:17:10.466Z,24.40
2022-10-22T04:19:39.465Z,23.33
2022-10-22T04:22:09.993Z,21.63
2022-10-22T04:27:08.101Z,21.70
2022-10-22T04:29:37.087Z,21.35
2022-10-22T04:32:06.460Z,21.73
2022-10-22T04:34:35.454Z,23.50
2022-10-22T04:37:04.888Z,24.15
2022-10-22T04:39:35.240Z,23.05
2022-10-22T04:42:04.895Z,22.85
2022-10-22T04:44:34.200Z,23.88
2022-10-22T04:47:03.331Z,24.88
2022-10-22T04:49:32.258Z,24.23
2022-10-22T04:52:01.388Z,23.98
2022-10-22T04:54:33.040Z,25.65
2022-10-22T04:57:03.895Z,23.55
2022-10-22T05:02:01.769Z,23.55
2022-10-22T05:04:30.705Z,24.40
2022-10-22T05:06:59.896Z,26.92
2022-10-22T05:09:28.832Z,25.38
2022-10-22T05:11:58.014Z,25.25
2022-10-22T05:14:28.341Z,24.77
2022-10-22T05:16:57.491Z,25.38
2022-10-22T05:19:28.010Z,23.80
2022-10-22T05:21:59.282Z,25.38
2022-10-22T05:24:29.944Z,22.92
2022-10-22T05:27:00.919Z,22.63
2022-10-22T05:29:31.281Z,23.88
2022-10-22T05:32:00.455Z,23.90
2022-10-22T05:34:29.422Z,23.75
2022-10-22T05:36:58.571Z,24.55
2022-10-22T05:39:27.740Z,24.42
2022-10-22T05:41:56.926Z,25.15
2022-10-22T05:44:25.855Z,24.55
2022-10-22T05:46:56.513Z,24.58
2022-10-22T05:49:25.526Z,24.35
2022-10-22T05:51:54.700Z,25.27
2022-10-22T05:54:23.749Z,24.88
2022-10-22T05:56:52.889Z,25.35
2022-10-22T05:59:21.837Z,25.10
2022-10-22T06:01:51.123Z,25.58
2022-10-22T06:04:21.643Z,24.67
2022-10-22T06:06:53.840Z,23.73
2022-10-22T06:09:26.060Z,26.20
2022-10-22T06:11:56.009Z,25.60
2022-10-22T06:14:25.773Z,24.20
2022-10-22T06:16:55.190Z,22.75
2022-10-22T06:19:26.859Z,24.00
2022-10-22T06:21:56.042Z,23.30
2022-10-22T06:24:25.029Z,25.23
2022-10-22T06:26:54.769Z,24.52
2022-10-22T06:29:23.980Z,25.02
2022-10-22T06:31:53.134Z,23.67
2022-10-22T06:34:22.100Z,24.63
2022-10-22T06:36:52.632Z,25.40
2022-10-22T06:41:50.521Z,23.30
2022-10-22T06:44:20.738Z,26.48
2022-10-22T06:46:52.103Z,27.90
2022-10-22T06:49:22.113Z,27.85
2022-10-22T06:54:22.541Z,26.13
2022-10-22T06:56:51.742Z,25.30
2022-10-22T06:59:20.718Z,24.75
2022-10-22T07:01:50.021Z,25.23
2022-10-22T07:04:19.043Z,24.85
2022-10-22T07:06:48.211Z,24.52
2022-10-22T07:11:52.583Z,29.77
2022-10-22T07:14:21.613Z,28.48
2022-10-22T07:16:50.759Z,30.75
2022-10-22T07:19:19.715Z,29.10
2022-10-22T07:21:48.890Z,28.33
2022-10-22T07:24:19.267Z,28.10
2022-10-22T07:26:48.529Z,27.55
2022-10-22T07:29:17.594Z,28.20
2022-10-22T07:31:47.109Z,28.67
2022-10-22T07:34:16.382Z,28.63
2022-10-22T07:36:45.627Z,30.42
2022-10-22T07:39:14.612Z,30.30
2022-10-22T07:41:45.197Z,30.05
2022-10-22T07:44:14.378Z,29.08
2022-10-22T07:46:48.033Z,29.65
2022-10-22T07:49:18.070Z,29.35
2022-10-22T07:51:47.321Z,28.55
2022-10-22T07:54:16.697Z,28.02
2022-10-22T07:56:47.268Z,27.92
2022-10-22T07:59:16.412Z,27.45
2022-10-22T08:01:46.920Z,25.67
2022-10-22T08:04:16.020Z,25.55
2022-10-22T08:06:47.224Z,29.15
2022-10-22T08:09:17.036Z,26.75
2022-10-22T08:11:47.736Z,27.13
2022-10-22T08:14:17.276Z,27.27
2022-10-22T08:16:46.443Z,27.65
2022-10-22T08:19:18.814Z,26.92
2022-10-22T08:21:48.089Z,25.98
2022-10-22T08:24:17.069Z,25.30
2022-10-22T08:26:47.643Z,24.63
2022-10-22T08:29:16.903Z,24.52
2022-10-22T08:31:54.383Z,24.65
2022-10-22T08:34:25.004Z,26.92
2022-10-22T08:36:54.206Z,29.48
2022-10-22T08:39:23.688Z,27.30
2022-10-22T08:42:29.493Z,27.00
2022-10-22T08:45:16.996Z,27.10
2022-10-22T08:48:10.669Z,27.75
2022-10-22T08:50:42.177Z,27.83
2022-10-22T08:53:16.685Z,28.48
2022-10-22T08:55:46.129Z,26.77
2022-10-22T08:58:24.020Z,28.83
2022-10-22T09:00:59.875Z,27.35
2022-10-22T09:03:51.520Z,28.55
2022-10-22T09:06:23.728Z,28.10
2022-10-22T09:08:55.038Z,30.20
2022-10-22T09:11:29.429Z,29.38
2022-10-22T09:14:08.595Z,31.85
2022-10-22T09:16:44.162Z,29.13
2022-10-22T09:19:22.681Z,27.95
2022-10-22T09:22:02.946Z,30.92
2022-10-22T09:24:38.580Z,31.98
2022-10-22T09:27:17.427Z,30.27
2022-10-22T09:29:49.192Z,28.30
2022-10-22T09:32:18.719Z,33.65
2022-10-22T09:34:49.018Z,33.25
2022-10-22T09:37:20.114Z,33.08
2022-10-22T09:39:52.624Z,33.20
2022-10-22T09:42:23.357Z,31.35
2022-10-22T09:44:57.483Z,34.33
2022-10-22T09:47:43.718Z,32.88
2022-10-22T09:50:26.465Z,30.52
2022-10-22T09:53:06.441Z,29.27
2022-10-22T09:55:35.614Z,31.77
2022-10-22T09:58:04.669Z,33.38
2022-10-22T10:04:09.344Z,34.47
2022-10-22T10:06:56.902Z,30.23
2022-10-22T10:09:59.352Z,31.17
2022-10-22T10:16:57.945Z,30.58
2022-10-22T10:19:47.052Z,31.70
2022-10-22T10:22:27.133Z,31.00
2022-10-22T10:27:41.531Z,30.48
2022-10-22T10:30:34.302Z,32.10
2022-10-22T10:36:28.616Z,28.60
2022-10-22T10:39:06.100Z,26.27
2022-10-22T10:42:00.071Z,28.73
2022-10-22T10:45:01.441Z,27.85
2022-10-22T10:47:52.500Z,29.65
2022-10-22T10:50:30.574Z,27.85
2022-10-22T10:53:11.743Z,24.30
2022-10-22T10:55:53.557Z,23.17
2022-10-22T10:58:32.987Z,25.60
2022-10-22T11:01:11.926Z,23.20
2022-10-22T11:04:07.525Z,21.83
2022-10-22T11:06:40.276Z,18.27
2022-10-22T11:09:24.544Z,18.30
2022-10-22T11:11:56.825Z,17.40
2022-10-22T11:14:33.002Z,17.40
2022-10-22T11:17:06.202Z,16.95
2022-10-22T11:19:51.584Z,18.17
2022-10-22T11:22:30.669Z,18.77
2022-10-22T11:25:06.941Z,19.27
2022-10-22T11:27:41.346Z,18.60
2022-10-22T11:30:16.465Z,28.10
2022-10-22T11:32:48.398Z,18.83
2022-10-22T11:35:25.566Z,22.17
2022-10-22T11:37:58.095Z,18.75
2022-10-22T11:41:06.143Z,17.85
2022-10-22T11:43:36.785Z,18.15
2022-10-22T11:46:26.887Z,17.73
2022-10-22T11:49:17.874Z,16.75
2022-10-22T11:51:48.048Z,17.27
2022-10-22T11:54:33.140Z,16.35
2022-10-22T11:57:24.411Z,16.40
2022-10-22T12:00:00.699Z,15.95
2022-10-22T12:02:43.955Z,15.63
2022-10-22T12:05:43.681Z,15.52
2022-10-22T12:08:34.490Z,15.40
2022-10-22T12:11:15.438Z,15.45
2022-10-22T12:14:02.645Z,14.95
2022-10-22T12:19:33.704Z,15.52
2022-10-22T12:22:18.184Z,16.90
2022-10-22T12:24:52.408Z,17.55
2022-10-22T12:27:25.653Z,19.58
2022-10-22T12:29:59.259Z,19.90
2022-10-22T12:32:46.943Z,19.73
2022-10-22T12:35:47.124Z,19.33
2022-10-22T12:38:20.243Z,20.08
2022-10-22T12:40:51.266Z,20.30
2022-10-22T12:43:26.475Z,21.85
2022-10-22T12:45:57.663Z,19.20
2022-10-22T12:48:29.505Z,21.55
2022-10-22T12:51:01.610Z,22.35
2022-10-22T12:53:37.871Z,25.02
2022-10-22T12:56:11.652Z,24.08
2022-10-22T12:58:56.614Z,24.33
2022-10-22T13:01:29.170Z,23.58
2022-10-22T13:04:08.278Z,25.52
2022-10-22T13:06:37.688Z,25.75
2022-10-22T13:09:17.567Z,28.27
2022-10-22T13:11:53.006Z,28.15
2022-10-22T13:14:29.140Z,25.95
2022-10-22T13:17:14.802Z,26.98
2022-10-22T13:19:48.323Z,26.08
2022-10-22T13:22:33.296Z,29.60
2022-10-22T13:25:20.490Z,31.27
2022-10-22T13:27:51.530Z,28.63
2022-10-22T13:30:25.121Z,29.40
2022-10-22T13:32:57.259Z,34.28
2022-10-22T13:35:29.163Z,30.00
2022-10-22T13:37:58.146Z,32.67
2022-10-22T13:40:27.828Z,31.25
2022-10-22T13:42:56.755Z,32.13
2022-10-22T13:45:27.602Z,33.28
2022-10-22T13:47:57.136Z,29.23
2022-10-22T13:50:26.533Z,36.25
2022-10-22T13:52:57.578Z,32.40
2022-10-22T13:55:29.268Z,35.33
2022-10-22T13:58:01.714Z,32.20
2022-10-22T14:00:32.407Z,29.33
2022-10-22T14:03:01.839Z,30.83
2022-10-22T14:05:32.576Z,31.13
2022-10-22T14:08:02.330Z,33.20
2022-10-22T14:10:31.685Z,32.97
2022-10-22T14:13:00.624Z,32.35
2022-10-22T14:15:32.273Z,30.15
2022-10-22T14:18:01.973Z,31.30
2022-10-22T14:20:33.975Z,33.22
2022-10-22T14:23:13.066Z,30.88
2022-10-22T14:25:42.721Z,33.33
2022-10-22T14:28:12.864Z,31.58
2022-10-22T14:30:43.464Z,30.70
2022-10-22T14:33:16.542Z,31.55
2022-10-22T14:35:45.982Z,29.85
2022-10-22T14:38:14.942Z,32.07
2022-10-22T14:40:44.959Z,31.95
2022-10-22T14:43:15.905Z,30.92
2022-10-22T14:45:46.491Z,26.33
2022-10-22T14:48:16.545Z,29.58
2022-10-22T14:50:47.114Z,28.42
2022-10-22T14:55:47.435Z,26.98
2022-10-22T14:58:16.843Z,27.60
2022-10-22T15:00:47.450Z,27.77
2022-10-22T15:03:16.438Z,27.17
2022-10-22T15:05:46.620Z,24.20
2022-10-22T15:08:16.623Z,24.35
2022-10-22T15:13:14.563Z,23.00
2022-10-22T15:15:43.828Z,22.30
2022-10-22T15:18:14.220Z,20.15
2022-10-22T15:20:43.368Z,21.73
2022-10-22T15:23:12.356Z,23.08
2022-10-22T15:25:45.460Z,22.35
2022-10-22T15:28:14.590Z,23.20
2022-10-22T15:30:43.819Z,22.47
2022-10-22T15:33:14.258Z,23.70
2022-10-22T15:35:43.415Z,29.88
2022-10-22T15:38:12.407Z,30.73
2022-10-22T15:40:41.641Z,36.63
2022-10-22T15:43:10.859Z,33.15
2022-10-22T15:45:40.136Z,31.40
2022-10-22T15:48:10.481Z,26.58
2022-10-22T15:50:42.922Z,25.80
2022-10-22T15:53:12.477Z,22.25
2022-10-22T15:55:41.680Z,24.80
2022-10-22T15:58:10.814Z,25.20
2022-10-22T16:00:40.272Z,26.55
2022-10-22T16:03:09.687Z,25.50
2022-10-22T16:05:54.568Z,30.15
2022-10-22T16:08:23.932Z,30.05
2022-10-22T16:10:57.287Z,31.08
2022-10-22T16:13:27.507Z,29.50
2022-10-22T16:15:57.112Z,32.17
2022-10-22T16:18:28.618Z,26.40
2022-10-22T16:20:59.137Z,24.40
2022-10-22T16:23:33.507Z,23.30
2022-10-22T16:26:06.590Z,22.38
2022-10-22T16:28:41.443Z,22.33
2022-10-22T16:31:12.770Z,26.88
2022-10-22T16:33:47.741Z,22.77
2022-10-22T16:36:23.043Z,23.77
2022-10-22T16:38:52.217Z,26.95
2022-10-22T16:41:23.712Z,26.65
2022-10-22T16:43:55.858Z,24.52
2022-10-22T16:46:25.654Z,23.90
2022-10-22T16:48:55.268Z,23.40
2022-10-22T16:51:27.931Z,25.55
2022-10-22T16:53:59.214Z,27.60
2022-10-22T16:56:28.813Z,25.17
2022-10-22T16:58:58.887Z,24.73
2022-10-22T17:04:00.435Z,23.88
2022-10-22T17:06:31.137Z,25.42
2022-10-22T17:09:00.253Z,24.95
2022-10-22T17:11:34.813Z,23.83
2022-10-22T17:14:04.905Z,26.13
2022-10-22T17:16:34.168Z,24.13
2022-10-22T17:19:05.410Z,26.67
2022-10-22T17:21:35.984Z,25.00
2022-10-22T17:24:05.168Z,24.27
2022-10-22T17:26:34.700Z,23.67
2022-10-22T17:29:04.198Z,24.70
2022-10-22T17:31:37.222Z,24.35
2022-10-22T17:34:08.185Z,22.73
2022-10-22T17:36:39.146Z,22.77
2022-10-22T17:39:09.051Z,22.83
2022-10-22T17:41:39.098Z,24.27
2022-10-22T17:44:09.974Z,23.70
2022-10-22T17:46:39.726Z,21.42
2022-10-22T17:49:14.341Z,25.40
2022-10-22T17:51:44.934Z,24.55
2022-10-22T17:54:14.957Z,23.95
2022-10-22T17:59:17.120Z,24.93
2022-10-22T18:01:47.732Z,22.90
2022-10-22T18:04:19.519Z,20.75
2022-10-22T18:06:50.709Z,20.00
2022-10-22T18:09:20.563Z,20.48
2022-10-22T18:11:50.830Z,18.77
2022-10-22T18:14:21.362Z,19.10
2022-10-22T18:16:51.061Z,17.25
2022-10-22T18:19:23.195Z,17.55
2022-10-22T18:21:53.827Z,22.65
2022-10-22T18:24:23.081Z,19.00
2022-10-22T18:26:53.106Z,18.33
2022-10-22T18:29:25.086Z,17.80
2022-10-22T18:31:54.346Z,18.92
2022-10-22T18:34:24.075Z,17.27
2022-10-22T18:39:25.492Z,16.67
2022-10-22T18:41:54.866Z,17.15
2022-10-22T18:44:25.777Z,17.75
2022-10-22T18:46:54.966Z,16.90
2022-10-22T18:49:23.917Z,17.30
2022-10-22T18:51:54.530Z,16.33
2022-10-22T18:54:24.652Z,15.02
2022-10-22T18:57:00.604Z,14.20
2022-10-22T18:59:31.330Z,14.60
2022-10-22T19:02:00.673Z,15.25
2022-10-22T19:04:36.793Z,14.63
2022-10-22T19:09:38.448Z,14.30
2022-10-22T19:12:09.017Z,14.45
2022-10-22T19:14:38.318Z,13.77
2022-10-22T19:17:07.530Z,13.57
2022-10-22T19:19:36.869Z,18.50
2022-10-22T19:22:07.565Z,19.57
2022-10-22T19:24:36.713Z,20.42
2022-10-22T19:27:06.095Z,14.70
2022-10-22T19:29:35.212Z,14.57
2022-10-22T19:32:04.900Z,12.88
2022-10-22T19:34:33.976Z,14.50
2022-10-22T19:37:03.555Z,13.50
2022-10-22T19:39:34.134Z,14.27
2022-10-22T19:42:04.269Z,13.60
2022-10-22T19:44:33.364Z,13.25
2022-10-22T19:47:02.573Z,13.00
2022-10-22T19:49:31.632Z,12.57
2022-10-22T19:52:00.881Z,12.87
2022-10-22T19:54:29.906Z,13.48
2022-10-22T19:57:00.659Z,13.47
2022-10-22T19:59:31.496Z,13.55
2022-10-22T20:02:01.836Z,14.30
2022-10-22T20:04:31.199Z,12.85
2022-10-22T20:07:00.479Z,13.07
2022-10-22T20:09:29.449Z,12.13
2022-10-22T20:12:00.062Z,12.07
2022-10-22T20:14:29.146Z,11.30
2022-10-22T20:16:58.356Z,11.27
2022-10-22T20:19:29.253Z,10.88
2022-10-22T20:24:32.859Z,10.68
2022-10-22T20:27:03.453Z,10.80
2022-10-22T20:29:32.436Z,14.20
2022-10-22T20:32:03.270Z,14.07
2022-10-22T20:34:34.930Z,13.75
2022-10-22T20:37:04.339Z,13.70
2022-10-22T20:39:33.347Z,14.02
2022-10-22T20:42:04.052Z,14.75
2022-10-22T20:44:33.164Z,14.85
2022-10-22T20:47:02.565Z,11.70
2022-10-22T20:49:32.910Z,13.48
2022-10-22T20:52:02.226Z,12.38
2022-10-22T20:54:31.292Z,11.77
2022-10-22T20:57:02.078Z,10.33
2022-10-22T20:59:34.815Z,10.82
2022-10-22T21:02:04.345Z,11.30
2022-10-22T21:04:34.760Z,11.23
2022-10-22T21:07:04.042Z,11.35
2022-10-22T21:09:34.671Z,10.50
2022-10-22T21:12:05.043Z,10.52
2022-10-22T21:19:33.377Z,9.77
2022-10-22T21:22:02.597Z,10.60
2022-10-22T21:24:32.120Z,11.48
2022-10-22T21:27:02.600Z,11.25
2022-10-22T21:29:32.071Z,11.65
2022-10-22T21:32:02.975Z,11.52
2022-10-22T21:34:38.162Z,11.38
2022-10-22T21:37:08.324Z,11.38
2022-10-22T21:39:41.204Z,10.27
2022-10-22T21:42:11.624Z,17.52
2022-10-22T21:44:40.722Z,12.80
2022-10-22T21:47:11.501Z,10.73
2022-10-22T21:49:40.656Z,10.45
2022-10-22T21:52:09.859Z,10.67
2022-10-22T21:54:39.856Z,10.05
2022-10-22T21:57:09.140Z,11.07
2022-10-22T21:59:39.712Z,9.93
2022-10-22T22:07:08.215Z,10.10
2022-10-22T22:09:37.429Z,10.43
2022-10-22T22:12:06.841Z,10.35
2022-10-22T22:14:36.614Z,10.02
2022-10-22T22:17:05.907Z,8.95
2022-10-22T22:19:36.404Z,8.75
2022-10-22T22:22:05.699Z,8.93
2022-10-22T22:24:35.960Z,9.15
2022-10-22T22:27:05.401Z,9.35
2022-10-22T22:29:34.837Z,8.35
2022-10-22T22:32:04.090Z,8.68
2022-10-22T22:34:33.061Z,8.15
2022-10-22T22:37:03.648Z,7.38
2022-10-22T22:39:32.810Z,8.00
2022-10-22T22:42:01.978Z,8.50
2022-10-22T22:44:30.977Z,7.75
2022-10-22T22:47:16.663Z,8.55
2022-10-22T22:49:45.879Z,7.40
2022-10-22T22:52:16.483Z,8.33
2022-10-22T22:54:45.643Z,8.30
2022-10-22T22:57:15.954Z,7.40
2022-10-22T22:59:45.050Z,8.05
2022-10-22T23:02:15.498Z,7.70
2022-10-22T23:07:15.187Z,7.40
2022-10-22T23:09:44.185Z,8.43
2022-10-22T23:12:13.700Z,8.02
2022-10-22T23:14:42.686Z,8.50
2022-10-22T23:17:12.033Z,8.35
2022-10-22T23:19:41.059Z,7.57
2022-10-22T23:22:10.467Z,8.13
2022-10-22T23:24:41.460Z,7.50
2022-10-22T23:27:12.196Z,7.47
2022-10-22T23:29:41.339Z,7.65
2022-10-22T23:32:15.295Z,8.07
2022-10-22T23:34:44.443Z,6.97
2022-10-22T23:37:14.245Z,7.88
2022-10-22T23:39:44.628Z,7.70
2022-10-22T23:42:13.865Z,7.07
2022-10-22T23:44:43.131Z,6.50
2022-10-22T23:47:12.353Z,8.18
2022-10-22T23:49:41.374Z,7.72
2022-10-22T23:52:10.572Z,7.27
2022-10-22T23:54:39.568Z,7.10
2022-10-22T23:57:10.235Z,6.77
2022-10-22T23:59:39.379Z,7.53
